createdAt,value
2018-07-20T00:01:13.591Z,94401.19
2018-07-20T00:03:42.223Z,94405.13
2018-07-20T00:06:10.891Z,94404.78
2018-07-20T00:08:39.560Z,94404.78
2018-07-20T00:11:08.211Z,94398.49
2018-07-20T00:13:36.925Z,94410.51
2018-07-20T00:16:05.634Z,94394.07
2018-07-20T00:18:34.297Z,94409.52
2018-07-20T00:21:02.960Z,94402.81
2018-07-20T00:23:31.600Z,94409.69
2018-07-20T00:26:00.228Z,94402.61
2018-07-20T00:28:28.947Z,94403.17
2018-07-20T00:30:57.603Z,94398.92
2018-07-20T00:33:26.248Z,94388.14
2018-07-20T00:35:54.930Z,94392.09
2018-07-20T00:38:23.691Z,94387.91
2018-07-20T00:40:52.346Z,94393.23
2018-07-20T00:43:20.979Z,94395.22
2018-07-20T00:45:49.652Z,94391.63
2018-07-20T00:48:18.332Z,94395.13
2018-07-20T00:50:47.026Z,94395.75
2018-07-20T00:53:15.705Z,94400.34
2018-07-20T00:55:44.349Z,94390.28
2018-07-20T00:58:13.018Z,94386.09
2018-07-20T01:00:41.799Z,94384.08
2018-07-20T01:03:10.491Z,94380.12
2018-07-20T01:05:39.181Z,94377.90
2018-07-20T01:08:07.896Z,94383.45
2018-07-20T01:10:36.554Z,94378.53
2018-07-20T01:13:05.274Z,94385.17
2018-07-20T01:15:34.001Z,94382.09
2018-07-20T01:18:02.677Z,94379.76
2018-07-20T01:20:31.354Z,94380.34
2018-07-20T01:22:59.996Z,94379.13
2018-07-20T01:25:28.678Z,94380.63
2018-07-20T01:27:57.399Z,94380.51
2018-07-20T01:30:26.061Z,94384.75
2018-07-20T01:32:54.723Z,94388.35
2018-07-20T01:35:23.350Z,94373.76
2018-07-20T01:37:52.014Z,94377.81
2018-07-20T01:40:20.722Z,94374.10
2018-07-20T01:42:49.391Z,94377.03
2018-07-20T01:45:18.028Z,94376.20
2018-07-20T01:47:46.667Z,94366.07
2018-07-20T01:50:15.415Z,94368.41
2018-07-20T01:52:44.103Z,94366.80
2018-07-20T01:55:12.768Z,94369.44
2018-07-20T01:57:41.438Z,94365.05
2018-07-20T02:00:10.715Z,94368.52
2018-07-20T02:02:39.385Z,94372.47
2018-07-20T02:05:08.030Z,94374.55
2018-07-20T02:07:36.832Z,94367.50
2018-07-20T02:10:05.534Z,94367.67
2018-07-20T02:12:34.194Z,94367.73
2018-07-20T02:15:02.927Z,94360.91
2018-07-20T02:17:31.606Z,94361.75
2018-07-20T02:20:00.324Z,94364.38
2018-07-20T02:22:28.984Z,94366.47
2018-07-20T02:24:57.611Z,94374.08
2018-07-20T02:27:26.242Z,94366.91
2018-07-20T02:29:54.906Z,94364.86
2018-07-20T02:32:23.590Z,94370.92
2018-07-20T02:34:52.242Z,94368.08
2018-07-20T02:37:20.860Z,94373.05
2018-07-20T02:39:49.595Z,94371.16
2018-07-20T02:42:18.337Z,94365.48
2018-07-20T02:44:46.984Z,94372.95
2018-07-20T02:47:15.659Z,94377.40
2018-07-20T02:49:44.281Z,94375.77
2018-07-20T02:52:12.953Z,94377.88
2018-07-20T02:54:41.562Z,94375.19
2018-07-20T02:57:10.274Z,94382.30
2018-07-20T02:59:38.955Z,94382.50
2018-07-20T03:02:07.647Z,94383.93
2018-07-20T03:04:36.444Z,94393.03
2018-07-20T03:07:05.162Z,94383.42
2018-07-20T03:09:33.852Z,94382.78
2018-07-20T03:12:02.487Z,94389.02
2018-07-20T03:14:31.129Z,94384.66
2018-07-20T03:16:59.751Z,94378.66
2018-07-20T03:19:28.414Z,94382.67
2018-07-20T03:21:59.320Z,94381.95
2018-07-20T03:24:27.978Z,94376.14
2018-07-20T03:26:56.679Z,94383.51
2018-07-20T03:29:25.715Z,94386.91
2018-07-20T03:31:54.415Z,94385.30
2018-07-20T03:34:23.059Z,94388.90
2018-07-20T03:36:51.716Z,94392.12
2018-07-20T03:39:20.411Z,94393.20
2018-07-20T03:41:49.067Z,94398.66
2018-07-20T03:44:17.762Z,94398.78
2018-07-20T03:46:46.491Z,94399.91
2018-07-20T03:49:15.159Z,94401.34
2018-07-20T03:51:43.838Z,94395.45
2018-07-20T03:54:12.521Z,94399.58
2018-07-20T03:56:41.242Z,94401.01
2018-07-20T03:59:09.901Z,94401.91
2018-07-20T04:01:38.568Z,94404.30
2018-07-20T04:04:07.296Z,94401.95
2018-07-20T04:06:36.066Z,94405.28
2018-07-20T04:09:06.149Z,94414.03
2018-07-20T04:11:34.792Z,94410.89
2018-07-20T04:14:03.457Z,94409.23
2018-07-20T04:16:32.144Z,94413.92
2018-07-20T04:19:00.820Z,94414.72
2018-07-20T04:21:29.526Z,94412.86
2018-07-20T04:23:58.262Z,94416.82
2018-07-20T04:26:26.935Z,94420.72
2018-07-20T04:28:55.580Z,94423.02
2018-07-20T04:31:24.336Z,94422.09
2018-07-20T04:33:53.009Z,94415.13
2018-07-20T04:36:21.676Z,94418.62
2018-07-20T04:38:50.365Z,94417.22
2018-07-20T04:41:19.133Z,94416.34
2018-07-20T04:43:47.856Z,94424.36
2018-07-20T04:46:16.529Z,94425.97
2018-07-20T04:48:45.260Z,94428.98
2018-07-20T04:51:13.909Z,94428.50
2018-07-20T04:53:42.587Z,94430.80
2018-07-20T04:56:11.254Z,94434.86
2018-07-20T04:58:39.991Z,94434.06
2018-07-20T05:01:08.651Z,94434.65
2018-07-20T05:03:37.409Z,94436.52
2018-07-20T05:06:06.199Z,94438.16
2018-07-20T05:08:34.890Z,94433.34
2018-07-20T05:11:03.522Z,94430.20
2018-07-20T05:13:32.227Z,94432.66
2018-07-20T05:16:00.901Z,94433.18
2018-07-20T05:18:29.522Z,94438.66
2018-07-20T05:20:58.186Z,94437.22
2018-07-20T05:23:26.847Z,94435.77
2018-07-20T05:25:55.518Z,94436.48
2018-07-20T05:28:24.202Z,94437.52
2018-07-20T05:30:52.933Z,94427.16
2018-07-20T05:33:21.594Z,94438.92
2018-07-20T05:35:50.634Z,94435.83
2018-07-20T05:38:19.316Z,94437.67
2018-07-20T05:40:48.018Z,94439.38
2018-07-20T05:43:17.067Z,94447.20
2018-07-20T05:45:46.098Z,94449.30
2018-07-20T05:48:15.075Z,94445.47
2018-07-20T05:50:43.751Z,94445.89
2018-07-20T05:53:12.535Z,94445.70
2018-07-20T05:55:41.239Z,94443.44
2018-07-20T05:58:10.350Z,94442.11
2018-07-20T06:00:39.087Z,94440.71
2018-07-20T06:03:07.868Z,94445.79
2018-07-20T06:05:37.453Z,94445.16
2018-07-20T06:08:06.162Z,94447.00
2018-07-20T06:10:34.815Z,94447.33
2018-07-20T06:13:03.501Z,94440.56
2018-07-20T06:15:32.202Z,94444.03
2018-07-20T06:18:00.887Z,94441.16
2018-07-20T06:20:29.613Z,94439.86
2018-07-20T06:22:58.279Z,94442.97
2018-07-20T06:25:26.934Z,94441.51
2018-07-20T06:27:55.660Z,94441.22
2018-07-20T06:30:24.387Z,94451.19
2018-07-20T06:32:53.040Z,94445.94
2018-07-20T06:35:21.744Z,94453.47
2018-07-20T06:37:50.574Z,94450.40
2018-07-20T06:40:19.287Z,94447.47
2018-07-20T06:42:48.006Z,94441.11
2018-07-20T06:45:16.749Z,94454.11
2018-07-20T06:47:45.438Z,94447.97
2018-07-20T06:50:16.886Z,94445.00
2018-07-20T06:52:47.990Z,94449.96
2018-07-20T06:55:16.706Z,94456.16
2018-07-20T06:57:46.034Z,94455.38
2018-07-20T07:00:14.797Z,94447.83
2018-07-20T07:02:43.451Z,94447.33
2018-07-20T07:05:12.622Z,94443.15
2018-07-20T07:07:41.245Z,94445.77
2018-07-20T07:10:10.167Z,94451.31
2018-07-20T07:12:38.929Z,94449.83
2018-07-20T07:15:07.594Z,94443.47
2018-07-20T07:17:36.341Z,94438.88
2018-07-20T07:20:05.120Z,94457.05
2018-07-20T07:22:33.818Z,94463.84
2018-07-20T07:25:02.545Z,94455.50
2018-07-20T07:27:31.309Z,94473.05
2018-07-20T07:30:00.022Z,94464.66
2018-07-20T07:32:28.655Z,94455.38
2018-07-20T07:34:57.384Z,94464.26
2018-07-20T07:37:26.021Z,94472.03
2018-07-20T07:39:54.719Z,94461.29
2018-07-20T07:42:23.874Z,94465.57
2018-07-20T07:44:52.701Z,94464.59
2018-07-20T07:47:21.371Z,94471.34
2018-07-20T07:49:50.094Z,94471.02
2018-07-20T07:52:18.835Z,94471.96
2018-07-20T07:54:47.523Z,94478.95
2018-07-20T07:57:16.213Z,94472.16
2018-07-20T07:59:44.846Z,94467.34
2018-07-20T08:02:13.972Z,94473.20
2018-07-20T08:04:42.650Z,94474.05
2018-07-20T08:07:11.415Z,94471.12
2018-07-20T08:09:40.092Z,94460.84
2018-07-20T08:12:09.381Z,94459.47
2018-07-20T08:14:38.177Z,94457.45
2018-07-20T08:17:06.939Z,94455.85
2018-07-20T08:19:35.638Z,94454.78
2018-07-20T08:22:04.434Z,94449.50
2018-07-20T08:24:33.161Z,94450.83
2018-07-20T08:27:01.847Z,94457.22
2018-07-20T08:29:30.506Z,94440.85
2018-07-20T08:31:59.176Z,94461.85
2018-07-20T08:34:27.808Z,94464.29
2018-07-20T08:36:56.795Z,94463.03
2018-07-20T08:39:25.620Z,94460.70
2018-07-20T08:41:54.292Z,94460.02
2018-07-20T08:44:23.022Z,94451.66
2018-07-20T08:46:51.739Z,94443.38
2018-07-20T08:49:20.390Z,94441.56
2018-07-20T08:51:49.078Z,94452.03
2018-07-20T08:54:17.742Z,94470.50
2018-07-20T08:56:46.458Z,94445.44
2018-07-20T08:59:15.158Z,94437.16
2018-07-20T09:01:43.911Z,94443.30
2018-07-20T09:04:12.552Z,94448.43
2018-07-20T09:06:41.209Z,94444.95
2018-07-20T09:09:10.466Z,94453.03
2018-07-20T09:11:39.150Z,94455.14
2018-07-20T09:14:07.877Z,94442.34
2018-07-20T09:16:36.530Z,94451.40
2018-07-20T09:19:05.208Z,94446.31
2018-07-20T09:21:33.938Z,94441.67
2018-07-20T09:24:02.631Z,94434.53
2018-07-20T09:26:31.278Z,94443.92
2018-07-20T09:28:59.906Z,94454.94
2018-07-20T09:31:28.599Z,94438.34
2018-07-20T09:33:57.263Z,94462.03
2018-07-20T09:36:25.899Z,94462.78
2018-07-20T09:38:54.583Z,94443.13
2018-07-20T09:41:23.313Z,94453.55
2018-07-20T09:43:51.942Z,94448.80
2018-07-20T09:46:20.649Z,94448.11
2018-07-20T09:48:49.318Z,94470.59
2018-07-20T09:51:20.616Z,94467.10
2018-07-20T09:53:49.634Z,94449.87
2018-07-20T09:56:20.607Z,94445.66
2018-07-20T09:58:55.540Z,94434.12
2018-07-20T10:01:24.325Z,94438.17
2018-07-20T10:03:52.956Z,94447.77
2018-07-20T10:06:21.675Z,94447.98
2018-07-20T10:08:50.320Z,94436.59
2018-07-20T10:11:18.917Z,94451.98
2018-07-20T10:13:47.619Z,94432.31
2018-07-20T10:16:16.280Z,94446.14
2018-07-20T10:18:45.018Z,94429.69
2018-07-20T10:21:13.670Z,94444.03
2018-07-20T10:23:42.365Z,94463.89
2018-07-20T10:26:11.017Z,94453.72
2018-07-20T10:28:39.891Z,94447.38
2018-07-20T10:31:08.578Z,94445.28
2018-07-20T10:33:37.889Z,94435.72
2018-07-20T10:36:06.616Z,94437.63
2018-07-20T10:38:35.299Z,94423.58
2018-07-20T10:41:03.982Z,94444.55
2018-07-20T10:43:32.594Z,94452.80
2018-07-20T10:46:03.581Z,94466.08
2018-07-20T10:48:32.258Z,94450.06
2018-07-20T10:51:00.900Z,94472.41
2018-07-20T10:53:29.603Z,94457.52
2018-07-20T10:55:58.306Z,94451.98
2018-07-20T10:58:26.924Z,94443.48
2018-07-20T11:00:55.647Z,94447.50
2018-07-20T11:03:24.290Z,94448.83
2018-07-20T11:05:52.899Z,94450.14
2018-07-20T11:08:22.216Z,94461.70
2018-07-20T11:10:50.943Z,94452.91
2018-07-20T11:13:19.855Z,94448.17
2018-07-20T11:15:48.502Z,94451.48
2018-07-20T11:18:17.124Z,94437.95
2018-07-20T11:20:45.752Z,94471.70
2018-07-20T11:23:14.505Z,94467.47
2018-07-20T11:25:43.153Z,94436.76
2018-07-20T11:28:11.996Z,94453.00
2018-07-20T11:30:40.686Z,94452.37
2018-07-20T11:33:09.320Z,94463.48
2018-07-20T11:35:37.999Z,94448.03
2018-07-20T11:38:06.653Z,94423.57
2018-07-20T11:40:35.330Z,94445.86
2018-07-20T11:43:03.993Z,94448.20
2018-07-20T11:45:32.615Z,94436.02
2018-07-20T11:48:01.226Z,94433.28
2018-07-20T11:50:29.869Z,94441.18
2018-07-20T11:52:58.569Z,94434.52
2018-07-20T11:55:27.182Z,94444.50
2018-07-20T11:57:55.910Z,94429.74
2018-07-20T12:00:24.619Z,94431.86
2018-07-20T12:02:53.279Z,94438.41
2018-07-20T12:05:21.938Z,94443.45
2018-07-20T12:07:50.869Z,94429.23
2018-07-20T12:10:19.523Z,94455.09
2018-07-20T12:12:48.171Z,94435.53
2018-07-20T12:15:16.829Z,94441.72
2018-07-20T12:17:45.503Z,94432.05
2018-07-20T12:20:14.163Z,94429.87
2018-07-20T12:22:42.826Z,94431.19
2018-07-20T12:25:11.464Z,94443.02
2018-07-20T12:27:40.104Z,94425.12
2018-07-20T12:30:08.904Z,94433.29
2018-07-20T12:32:37.612Z,94453.52
2018-07-20T12:35:06.561Z,94439.23
2018-07-20T12:37:35.290Z,94426.10
2018-07-20T12:40:04.069Z,94423.47
2018-07-20T12:42:32.810Z,94425.73
2018-07-20T12:45:01.492Z,94414.44
2018-07-20T12:47:30.167Z,94416.27
2018-07-20T12:49:58.823Z,94425.35
2018-07-20T12:52:27.490Z,94436.50
2018-07-20T12:54:56.204Z,94421.16
2018-07-20T12:57:24.915Z,94406.66
2018-07-20T12:59:53.592Z,94416.64
2018-07-20T13:02:22.286Z,94413.19
2018-07-20T13:04:50.960Z,94423.06
2018-07-20T13:07:19.639Z,94423.92
2018-07-20T13:09:48.282Z,94428.66
2018-07-20T13:12:16.951Z,94420.91
2018-07-20T13:14:45.592Z,94401.61
2018-07-20T13:17:15.611Z,94428.42
2018-07-20T13:19:44.248Z,94422.45
2018-07-20T13:22:12.913Z,94436.48
2018-07-20T13:24:41.599Z,94409.47
2018-07-20T13:27:10.259Z,94414.21
2018-07-20T13:29:39.010Z,94422.23
2018-07-20T13:32:08.044Z,94411.32
2018-07-20T13:34:36.813Z,94402.48
2018-07-20T13:37:05.581Z,94402.23
2018-07-20T13:39:34.286Z,94408.43
2018-07-20T13:42:03.036Z,94411.36
2018-07-20T13:44:31.846Z,94409.53
2018-07-20T13:47:00.710Z,94397.93
2018-07-20T13:49:29.403Z,94404.84
2018-07-20T13:51:58.252Z,94392.44
2018-07-20T13:54:26.935Z,94408.40
2018-07-20T13:56:55.634Z,94392.16
2018-07-20T13:59:24.310Z,94391.19
2018-07-20T14:01:53.068Z,94404.11
2018-07-20T14:04:21.697Z,94394.12
2018-07-20T14:06:50.373Z,94400.81
2018-07-20T14:09:19.088Z,94391.95
2018-07-20T14:11:47.740Z,94387.29
2018-07-20T14:14:16.463Z,94410.22
2018-07-20T14:16:45.165Z,94386.48
2018-07-20T14:19:13.871Z,94395.30
2018-07-20T14:21:42.655Z,94401.62
2018-07-20T14:24:11.330Z,94413.90
2018-07-20T14:26:40.059Z,94403.88
2018-07-20T14:29:08.762Z,94426.50
2018-07-20T14:31:37.499Z,94418.30
2018-07-20T14:34:06.246Z,94418.98
2018-07-20T14:36:34.921Z,94413.27
2018-07-20T14:39:04.946Z,94436.44
2018-07-20T14:41:33.763Z,94417.76
2018-07-20T14:44:02.507Z,94434.45
2018-07-20T14:46:31.217Z,94411.12
2018-07-20T14:48:59.984Z,94401.50
2018-07-20T14:51:28.721Z,94422.66
2018-07-20T14:53:57.403Z,94415.45
2018-07-20T14:56:26.198Z,94410.56
2018-07-20T14:58:54.913Z,94402.02
2018-07-20T15:01:23.620Z,94403.50
2018-07-20T15:03:52.351Z,94400.14
2018-07-20T15:06:21.099Z,94400.66
2018-07-20T15:08:49.815Z,94400.22
2018-07-20T15:11:18.617Z,94405.95
2018-07-20T15:13:47.297Z,94390.14
2018-07-20T15:16:15.971Z,94389.69
2018-07-20T15:18:44.607Z,94397.09
2018-07-20T15:21:13.311Z,94394.73
2018-07-20T15:23:42.100Z,94410.27
2018-07-20T15:26:10.964Z,94407.73
2018-07-20T15:28:39.620Z,94409.93
2018-07-20T15:31:08.414Z,94385.60
2018-07-20T15:33:37.165Z,94402.98
2018-07-20T15:36:06.042Z,94407.42
2018-07-20T15:38:34.807Z,94389.78
2018-07-20T15:41:03.503Z,94409.11
2018-07-20T15:43:32.244Z,94404.19
2018-07-20T15:46:05.968Z,94437.16
2018-07-20T15:48:29.594Z,94434.55
2018-07-20T15:50:58.266Z,94419.59
2018-07-20T15:53:41.924Z,94416.97
2018-07-20T15:55:55.635Z,94415.33
2018-07-20T15:58:24.302Z,94413.56
2018-07-20T16:00:53.053Z,94418.88
2018-07-20T16:03:21.727Z,94414.95
2018-07-20T16:05:50.413Z,94412.52
2018-07-20T16:08:19.052Z,94426.05
2018-07-20T16:10:47.711Z,94414.44
2018-07-20T16:13:16.380Z,94413.02
2018-07-20T16:15:45.085Z,94409.48
2018-07-20T16:18:13.799Z,94407.69
2018-07-20T16:20:43.084Z,94439.20
2018-07-20T16:23:11.753Z,94448.09
2018-07-20T16:25:40.459Z,94423.91
2018-07-20T16:28:09.155Z,94427.16
2018-07-20T16:30:37.894Z,94417.25
2018-07-20T16:33:06.561Z,94422.16
2018-07-20T16:35:35.287Z,94421.63
2018-07-20T16:38:03.997Z,94435.42
2018-07-20T16:40:32.709Z,94452.94
2018-07-20T16:43:01.404Z,94428.91
2018-07-20T16:45:30.040Z,94426.24
2018-07-20T16:47:58.764Z,94435.25
2018-07-20T16:50:27.435Z,94431.80
2018-07-20T16:52:56.136Z,94433.18
2018-07-20T16:55:24.805Z,94423.89
2018-07-20T16:57:53.490Z,94432.52
2018-07-20T17:00:22.197Z,94434.09
2018-07-20T17:02:50.936Z,94435.00
2018-07-20T17:05:20.446Z,94443.29
2018-07-20T17:07:49.258Z,94441.67
2018-07-20T17:10:17.916Z,94450.43
2018-07-20T17:12:46.562Z,94432.05
2018-07-20T17:15:15.312Z,94440.02
2018-07-20T17:17:44.093Z,94446.66
2018-07-20T17:20:12.786Z,94447.50
2018-07-20T17:22:41.421Z,94448.86
2018-07-20T17:25:09.801Z,94450.94
2018-07-20T17:27:38.464Z,94448.28
2018-07-20T17:30:07.189Z,94437.66
2018-07-20T17:32:35.887Z,94447.22
2018-07-20T17:35:04.647Z,94446.66
2018-07-20T17:37:33.411Z,94454.12
2018-07-20T17:40:02.075Z,94459.37
2018-07-20T17:42:30.732Z,94456.47
2018-07-20T17:44:59.399Z,94457.78
2018-07-20T17:47:28.053Z,94454.31
2018-07-20T17:49:56.678Z,94460.13
2018-07-20T17:52:25.306Z,94458.95
2018-07-20T17:54:54.061Z,94460.23
2018-07-20T17:57:22.754Z,94467.59
2018-07-20T17:59:51.440Z,94468.88
2018-07-20T18:02:20.160Z,94481.59
2018-07-20T18:04:48.834Z,94481.31
2018-07-20T18:07:17.518Z,94477.80
2018-07-20T18:09:46.730Z,94482.54
2018-07-20T18:12:15.429Z,94480.94
2018-07-20T18:14:44.116Z,94493.92
2018-07-20T18:17:12.778Z,94487.52
2018-07-20T18:19:41.474Z,94490.22
2018-07-20T18:22:10.299Z,94496.26
2018-07-20T18:24:38.989Z,94500.23
2018-07-20T18:27:07.707Z,94507.93
2018-07-20T18:29:36.464Z,94506.06
2018-07-20T18:32:05.237Z,94508.66
2018-07-20T18:34:33.890Z,94507.04
2018-07-20T18:37:02.727Z,94512.55
2018-07-20T18:39:31.446Z,94518.65
2018-07-20T18:42:00.122Z,94523.75
2018-07-20T18:44:28.750Z,94524.08
2018-07-20T18:46:57.447Z,94521.10
2018-07-20T18:49:26.118Z,94528.27
2018-07-20T18:51:54.767Z,94522.11
2018-07-20T18:54:23.507Z,94526.08
2018-07-20T18:56:52.218Z,94525.58
2018-07-20T18:59:20.945Z,94525.03
2018-07-20T19:01:49.677Z,94519.16
2018-07-20T19:04:18.345Z,94515.98
2018-07-20T19:06:47.040Z,94509.05
2018-07-20T19:09:15.700Z,94513.46
2018-07-20T19:11:44.337Z,94520.89
2018-07-20T19:14:13.090Z,94519.50
2018-07-20T19:16:41.835Z,94527.13
2018-07-20T19:19:10.566Z,94530.13
2018-07-20T19:21:39.269Z,94528.19
2018-07-20T19:24:07.997Z,94526.95
2018-07-20T19:26:36.652Z,94535.98
2018-07-20T19:29:05.352Z,94540.06
2018-07-20T19:31:34.087Z,94537.98
2018-07-20T19:34:02.845Z,94536.45
2018-07-20T19:36:31.537Z,94536.16
2018-07-20T19:39:00.309Z,94542.59
2018-07-20T19:41:29.038Z,94539.89
2018-07-20T19:43:59.853Z,94535.05
2018-07-20T19:46:28.587Z,94538.97
2018-07-20T19:48:58.817Z,94541.30
2018-07-20T19:51:27.498Z,94539.69
2018-07-20T19:53:56.230Z,94540.17
2018-07-20T19:56:24.941Z,94542.77
2018-07-20T19:58:53.699Z,94544.01
2018-07-20T20:01:22.340Z,94545.11
2018-07-20T20:03:51.017Z,94544.55
2018-07-20T20:06:19.696Z,94545.62
2018-07-20T20:08:48.484Z,94544.55
2018-07-20T20:11:17.182Z,94543.25
2018-07-20T20:13:45.894Z,94547.00
2018-07-20T20:16:14.618Z,94543.47
2018-07-20T20:18:44.288Z,94541.13
2018-07-20T20:21:12.950Z,94539.53
2018-07-20T20:23:41.970Z,94540.32
2018-07-20T20:26:10.626Z,94548.77
2018-07-20T20:28:39.334Z,94536.59
2018-07-20T20:31:08.139Z,94544.06
2018-07-20T20:33:36.828Z,94539.05
2018-07-20T20:36:05.717Z,94544.63
2018-07-20T20:38:34.389Z,94536.09
2018-07-20T20:41:03.151Z,94548.03
2018-07-20T20:43:31.842Z,94537.67
2018-07-20T20:46:00.555Z,94531.10
2018-07-20T20:48:29.197Z,94535.81
2018-07-20T20:50:57.852Z,94529.11
2018-07-20T20:53:26.540Z,94529.36
2018-07-20T20:55:55.904Z,94529.16
2018-07-20T20:58:24.589Z,94531.70
2018-07-20T21:00:53.376Z,94528.80
2018-07-20T21:03:22.063Z,94534.98
2018-07-20T21:05:50.744Z,94531.05
2018-07-20T21:08:19.488Z,94533.30
2018-07-20T21:10:48.153Z,94531.21
2018-07-20T21:13:17.166Z,94531.21
2018-07-20T21:15:45.831Z,94536.98
2018-07-20T21:18:14.573Z,94532.77
2018-07-20T21:20:43.233Z,94536.67
2018-07-20T21:23:11.903Z,94538.81
2018-07-20T21:25:40.677Z,94539.09
2018-07-20T21:28:09.469Z,94538.94
2018-07-20T21:30:38.178Z,94542.63
2018-07-20T21:33:06.834Z,94542.91
2018-07-20T21:35:35.620Z,94548.10
2018-07-20T21:38:04.356Z,94542.20
2018-07-20T21:40:33.036Z,94555.97
2018-07-20T21:43:01.724Z,94545.52
2018-07-20T21:45:31.457Z,94547.98
2018-07-20T21:48:00.102Z,94547.73
2018-07-20T21:50:28.744Z,94547.45
2018-07-20T21:52:57.507Z,94542.59
2018-07-20T21:55:26.166Z,94536.86
2018-07-20T21:57:54.825Z,94536.64
2018-07-20T22:00:23.718Z,94537.70
2018-07-20T22:02:52.374Z,94534.78
2018-07-20T22:05:21.079Z,94534.75
2018-07-20T22:07:49.767Z,94538.97
2018-07-20T22:10:18.465Z,94537.39
2018-07-20T22:12:47.236Z,94546.13
2018-07-20T22:15:15.915Z,94540.80
2018-07-20T22:17:44.607Z,94540.58
2018-07-20T22:20:13.395Z,94543.95
2018-07-20T22:22:42.100Z,94542.94
2018-07-20T22:25:10.754Z,94537.36
2018-07-20T22:27:39.422Z,94534.75
2018-07-20T22:30:09.842Z,94538.16
2018-07-20T22:32:38.546Z,94523.91
2018-07-20T22:35:07.798Z,94522.55
2018-07-20T22:37:36.600Z,94525.73
2018-07-20T22:40:05.885Z,94517.80
2018-07-20T22:42:34.586Z,94522.17
2018-07-20T22:45:03.327Z,94517.92
2018-07-20T22:47:32.044Z,94516.47
2018-07-20T22:50:00.770Z,94507.16
2018-07-20T22:52:29.470Z,94510.48
2018-07-20T22:54:58.168Z,94517.33
2018-07-20T22:57:26.871Z,94519.66
2018-07-20T22:59:55.589Z,94519.88
2018-07-20T23:02:24.385Z,94526.17
2018-07-20T23:04:53.035Z,94517.34
2018-07-20T23:07:21.709Z,94522.06
2018-07-20T23:09:50.384Z,94521.81
2018-07-20T23:12:19.039Z,94513.05
2018-07-20T23:14:47.774Z,94516.20
2018-07-20T23:17:16.500Z,94516.27
2018-07-20T23:19:45.136Z,94516.23
2018-07-20T23:22:13.866Z,94524.17
2018-07-20T23:24:42.515Z,94519.86
2018-07-20T23:27:11.223Z,94513.21
2018-07-20T23:29:39.894Z,94509.73
2018-07-20T23:32:08.535Z,94506.20
2018-07-20T23:34:37.205Z,94500.27
2018-07-20T23:37:05.918Z,94503.09
2018-07-20T23:39:34.591Z,94502.53
2018-07-20T23:42:03.383Z,94500.09
2018-07-20T23:44:32.072Z,94501.91
2018-07-20T23:47:00.808Z,94504.13
2018-07-20T23:49:29.602Z,94504.95
2018-07-20T23:51:58.283Z,94506.48
2018-07-20T23:57:19.854Z,94516.25
2018-07-20T23:59:48.562Z,94512.86
